sensor_id;sensor_type;location;lat;lon;timestamp;pressure;altitude;pressure_sealevel;temperature;humidity
42771;BME280;28426;42.872;25.314;2023-02-13T00:01:21;98823.75;;;-2.86;88.48
42771;BME280;28426;42.872;25.314;2023-02-13T00:03:52;98822.66;;;-2.81;85.04
42771;BME280;28426;42.872;25.314;2023-02-13T00:06:23;98821.81;;;-3.05;79.95
42771;BME280;28426;42.872;25.314;2023-02-13T00:08:53;98827.41;;;-3.40;81.34
42771;BME280;28426;42.872;25.314;2023-02-13T00:11:23;98831.75;;;-3.66;85.70
42771;BME280;28426;42.872;25.314;2023-02-13T00:13:54;98836.00;;;-3.63;88.70
42771;BME280;28426;42.872;25.314;2023-02-13T00:16:27;98828.94;;;-3.60;89.98
42771;BME280;28426;42.872;25.314;2023-02-13T00:18:58;98832.47;;;-3.61;88.71
42771;BME280;28426;42.872;25.314;2023-02-13T00:21:28;98841.22;;;-3.63;88.75
42771;BME280;28426;42.872;25.314;2023-02-13T00:23:59;98840.50;;;-3.67;88.82
42771;BME280;28426;42.872;25.314;2023-02-13T00:26:29;98840.75;;;-3.75;87.88
42771;BME280;28426;42.872;25.314;2023-02-13T00:29:00;98832.53;;;-3.89;87.02
42771;BME280;28426;42.872;25.314;2023-02-13T00:31:33;98836.81;;;-3.87;91.42
42771;BME280;28426;42.872;25.314;2023-02-13T00:34:04;98830.47;;;-3.79;91.88
42771;BME280;28426;42.872;25.314;2023-02-13T00:36:34;98832.34;;;-3.83;88.75
42771;BME280;28426;42.872;25.314;2023-02-13T00:39:06;98838.63;;;-3.90;88.32
42771;BME280;28426;42.872;25.314;2023-02-13T00:41:37;98833.69;;;-3.98;89.22
42771;BME280;28426;42.872;25.314;2023-02-13T00:44:08;98840.81;;;-4.03;88.81
42771;BME280;28426;42.872;25.314;2023-02-13T00:46:42;98836.91;;;-4.17;87.87
42771;BME280;28426;42.872;25.314;2023-02-13T00:49:13;98839.03;;;-4.30;87.96
42771;BME280;28426;42.872;25.314;2023-02-13T00:51:43;98839.78;;;-4.26;93.31
42771;BME280;28426;42.872;25.314;2023-02-13T00:54:14;98838.59;;;-4.16;93.45
42771;BME280;28426;42.872;25.314;2023-02-13T00:56:44;98839.50;;;-4.17;90.35
42771;BME280;28426;42.872;25.314;2023-02-13T00:59:15;98830.88;;;-4.19;89.44
42771;BME280;28426;42.872;25.314;2023-02-13T01:01:49;98832.75;;;-4.24;89.82
42771;BME280;28426;42.872;25.314;2023-02-13T01:04:20;98840.75;;;-4.29;89.82
42771;BME280;28426;42.872;25.314;2023-02-13T01:06:50;98842.59;;;-4.32;89.98
42771;BME280;28426;42.872;25.314;2023-02-13T01:09:21;98841.81;;;-4.36;89.78
42771;BME280;28426;42.872;25.314;2023-02-13T01:11:51;98840.22;;;-4.40;89.86
42771;BME280;28426;42.872;25.314;2023-02-13T01:14:22;98835.13;;;-4.43;89.96
42771;BME280;28426;42.872;25.314;2023-02-13T01:16:55;98843.03;;;-4.47;90.29
42771;BME280;28426;42.872;25.314;2023-02-13T01:19:26;98846.63;;;-4.51;90.48
42771;BME280;28426;42.872;25.314;2023-02-13T01:21:57;98841.56;;;-4.55;90.13
42771;BME280;28426;42.872;25.314;2023-02-13T01:24:27;98845.94;;;-4.57;89.89
42771;BME280;28426;42.872;25.314;2023-02-13T01:26:59;98843.34;;;-4.57;89.81
42771;BME280;28426;42.872;25.314;2023-02-13T01:29:30;98850.41;;;-4.61;90.40
42771;BME280;28426;42.872;25.314;2023-02-13T01:32:04;98859.19;;;-4.64;90.28
42771;BME280;28426;42.872;25.314;2023-02-13T01:34:34;98854.00;;;-4.65;90.29
42771;BME280;28426;42.872;25.314;2023-02-13T01:37:05;98849.81;;;-4.71;90.12
42771;BME280;28426;42.872;25.314;2023-02-13T01:39:36;98849.81;;;-4.71;90.13
42771;BME280;28426;42.872;25.314;2023-02-13T01:42:13;98855.97;;;-4.74;90.23
42771;BME280;28426;42.872;25.314;2023-02-13T01:44:47;98852.69;;;-4.80;89.89
42771;BME280;28426;42.872;25.314;2023-02-13T01:47:24;98858.72;;;-4.78;89.69
42771;BME280;28426;42.872;25.314;2023-02-13T01:50:04;98843.22;;;-4.83;89.82
42771;BME280;28426;42.872;25.314;2023-02-13T01:52:40;98850.31;;;-4.88;89.98
42771;BME280;28426;42.872;25.314;2023-02-13T01:55:13;98857.31;;;-4.90;90.13
42771;BME280;28426;42.872;25.314;2023-02-13T01:57:48;98856.59;;;-4.95;90.12
42771;BME280;28426;42.872;25.314;2023-02-13T02:00:22;98855.81;;;-4.97;90.20
42771;BME280;28426;42.872;25.314;2023-02-13T02:03:01;98856.75;;;-5.00;90.01
42771;BME280;28426;42.872;25.314;2023-02-13T02:05:35;98858.56;;;-5.04;90.30
42771;BME280;28426;42.872;25.314;2023-02-13T02:08:10;98843.34;;;-5.18;90.17
42771;BME280;28426;42.872;25.314;2023-02-13T02:10:42;98854.44;;;-5.11;90.25
42771;BME280;28426;42.872;25.314;2023-02-13T02:13:15;98852.81;;;-5.15;90.40
42771;BME280;28426;42.872;25.314;2023-02-13T02:15:47;98855.47;;;-5.17;90.01
42771;BME280;28426;42.872;25.314;2023-02-13T02:18:22;98852.03;;;-5.19;90.09
42771;BME280;28426;42.872;25.314;2023-02-13T02:27:23;98841.97;;;-5.31;89.94
42771;BME280;28426;42.872;25.314;2023-02-13T02:33:17;98854.25;;;-5.36;90.20
42771;BME280;28426;42.872;25.314;2023-02-13T02:36:00;98816.75;;;-5.61;90.09
42771;BME280;28426;42.872;25.314;2023-02-13T02:38:50;98850.91;;;-5.42;89.81
42771;BME280;28426;42.872;25.314;2023-02-13T02:41:34;98856.22;;;-5.45;89.91
42771;BME280;28426;42.872;25.314;2023-02-13T02:44:31;98855.41;;;-5.48;89.91
42771;BME280;28426;42.872;25.314;2023-02-13T02:47:16;98848.56;;;-5.51;90.08
42771;BME280;28426;42.872;25.314;2023-02-13T02:50:15;98852.97;;;-5.53;89.69
42771;BME280;28426;42.872;25.314;2023-02-13T02:53:00;98842.72;;;-5.59;89.39
42771;BME280;28426;42.872;25.314;2023-02-13T02:55:42;98856.59;;;-5.60;89.53
42771;BME280;28426;42.872;25.314;2023-02-13T02:58:20;98846.28;;;-5.63;89.70
42771;BME280;28426;42.872;25.314;2023-02-13T03:01:08;98846.34;;;-5.65;90.16
42771;BME280;28426;42.872;25.314;2023-02-13T03:03:55;98844.75;;;-5.71;89.42
42771;BME280;28426;42.872;25.314;2023-02-13T03:06:44;98843.88;;;-5.71;90.17
42771;BME280;28426;42.872;25.314;2023-02-13T03:09:25;98838.72;;;-5.73;89.72
42771;BME280;28426;42.872;25.314;2023-02-13T03:12:12;98843.59;;;-5.60;93.95
42771;BME280;28426;42.872;25.314;2023-02-13T03:14:55;98842.47;;;-5.50;93.42
42771;BME280;28426;42.872;25.314;2023-02-13T03:17:26;98839.75;;;-5.45;89.43
42771;BME280;28426;42.872;25.314;2023-02-13T03:20:14;98839.09;;;-5.54;87.89
42771;BME280;28426;42.872;25.314;2023-02-13T03:23:25;98844.50;;;-5.61;89.02
42771;BME280;28426;42.872;25.314;2023-02-13T03:26:11;98847.28;;;-5.68;89.06
42771;BME280;28426;42.872;25.314;2023-02-13T03:28:53;98837.88;;;-5.73;89.20
42771;BME280;28426;42.872;25.314;2023-02-13T03:31:45;98843.16;;;-5.78;89.91
42771;BME280;28426;42.872;25.314;2023-02-13T03:34:22;98840.66;;;-5.81;89.95
42771;BME280;28426;42.872;25.314;2023-02-13T03:37:15;98845.03;;;-5.83;89.87
42771;BME280;28426;42.872;25.314;2023-02-13T03:40:06;98842.53;;;-5.86;89.58
42771;BME280;28426;42.872;25.314;2023-02-13T03:42:41;98846.03;;;-5.89;89.64
42771;BME280;28426;42.872;25.314;2023-02-13T03:45:17;98847.88;;;-5.93;89.77
42771;BME280;28426;42.872;25.314;2023-02-13T03:48:03;98848.78;;;-5.94;89.62
42771;BME280;28426;42.872;25.314;2023-02-13T03:50:38;98837.53;;;-5.96;89.78
42771;BME280;28426;42.872;25.314;2023-02-13T03:53:12;98839.38;;;-5.99;89.51
42771;BME280;28426;42.872;25.314;2023-02-13T03:55:47;98843.84;;;-6.03;89.41
42771;BME280;28426;42.872;25.314;2023-02-13T03:58:35;98845.59;;;-6.05;89.40
42771;BME280;28426;42.872;25.314;2023-02-13T04:01:24;98841.38;;;-6.09;89.83
42771;BME280;28426;42.872;25.314;2023-02-13T04:04:00;98844.91;;;-6.12;89.73
42771;BME280;28426;42.872;25.314;2023-02-13T04:06:38;98841.53;;;-6.15;89.70
42771;BME280;28426;42.872;25.314;2023-02-13T04:09:12;98841.66;;;-6.20;89.42
42771;BME280;28426;42.872;25.314;2023-02-13T04:11:50;98838.28;;;-6.25;90.14
42771;BME280;28426;42.872;25.314;2023-02-13T04:14:26;98840.94;;;-6.27;90.10
42771;BME280;28426;42.872;25.314;2023-02-13T04:17:02;98845.31;;;-6.29;89.98
42771;BME280;28426;42.872;25.314;2023-02-13T04:19:34;98840.09;;;-6.29;89.91
42771;BME280;28426;42.872;25.314;2023-02-13T04:22:05;98845.34;;;-6.31;89.80
42771;BME280;28426;42.872;25.314;2023-02-13T04:24:35;98840.16;;;-6.32;90.03
42771;BME280;28426;42.872;25.314;2023-02-13T04:27:09;98832.47;;;-6.35;90.04
42771;BME280;28426;42.872;25.314;2023-02-13T04:29:42;98842.81;;;-6.34;89.88
42771;BME280;28426;42.872;25.314;2023-02-13T04:32:13;98849.78;;;-6.36;90.01
42771;BME280;28426;42.872;25.314;2023-02-13T04:34:44;98849.81;;;-6.37;89.59
42771;BME280;28426;42.872;25.314;2023-02-13T04:37:14;98844.72;;;-6.40;89.73
42771;BME280;28426;42.872;25.314;2023-02-13T04:39:45;98842.13;;;-6.40;89.79
42771;BME280;28426;42.872;25.314;2023-02-13T04:42:18;98839.53;;;-6.42;90.02
42771;BME280;28426;42.872;25.314;2023-02-13T04:44:49;98835.22;;;-6.43;90.17
42771;BME280;28426;42.872;25.314;2023-02-13T04:47:19;98842.22;;;-6.45;89.78
42771;BME280;28426;42.872;25.314;2023-02-13T04:49:50;98848.28;;;-6.46;89.36
42771;BME280;28426;42.872;25.314;2023-02-13T04:52:20;98854.38;;;-6.47;89.98
42771;BME280;28426;42.872;25.314;2023-02-13T04:54:51;98851.81;;;-6.49;89.57
42771;BME280;28426;42.872;25.314;2023-02-13T04:57:24;98854.44;;;-6.50;89.94
42771;BME280;28426;42.872;25.314;2023-02-13T04:59:55;98853.59;;;-6.52;89.62
42771;BME280;28426;42.872;25.314;2023-02-13T05:02:25;98857.06;;;-6.52;89.70
42771;BME280;28426;42.872;25.314;2023-02-13T05:04:56;98851.91;;;-6.53;89.86
42771;BME280;28426;42.872;25.314;2023-02-13T05:07:27;98850.19;;;-6.53;89.87
42771;BME280;28426;42.872;25.314;2023-02-13T05:09:57;98856.28;;;-6.54;89.67
42771;BME280;28426;42.872;25.314;2023-02-13T05:12:31;98863.22;;;-6.56;89.79
42771;BME280;28426;42.872;25.314;2023-02-13T05:15:02;98858.91;;;-6.57;89.50
42771;BME280;28426;42.872;25.314;2023-02-13T05:17:32;98855.44;;;-6.56;89.59
42771;BME280;28426;42.872;25.314;2023-02-13T05:20:04;98860.63;;;-6.56;89.71
42771;BME280;28426;42.872;25.314;2023-02-13T05:22:34;98870.16;;;-6.57;89.73
42771;BME280;28426;42.872;25.314;2023-02-13T05:25:17;98877.91;;;-6.55;89.64
42771;BME280;28426;42.872;25.314;2023-02-13T05:27:51;98879.69;;;-6.57;89.62
42771;BME280;28426;42.872;25.314;2023-02-13T05:30:21;98872.72;;;-6.55;90.00
42771;BME280;28426;42.872;25.314;2023-02-13T05:32:51;98877.59;;;-6.39;93.09
42771;BME280;28426;42.872;25.314;2023-02-13T05:35:23;98871.31;;;-6.31;92.20
42771;BME280;28426;42.872;25.314;2023-02-13T05:37:53;98879.78;;;-6.22;91.66
42771;BME280;28426;42.872;25.314;2023-02-13T05:40:24;98870.97;;;-6.15;90.81
42771;BME280;28426;42.872;25.314;2023-02-13T05:42:57;98875.97;;;-6.07;90.34
42771;BME280;28426;42.872;25.314;2023-02-13T05:45:28;98878.41;;;-6.01;89.49
42771;BME280;28426;42.872;25.314;2023-02-13T05:47:58;98875.66;;;-5.95;88.81
42771;BME280;28426;42.872;25.314;2023-02-13T05:50:29;98878.13;;;-5.90;88.50
42771;BME280;28426;42.872;25.314;2023-02-13T05:53:00;98884.94;;;-5.84;88.10
42771;BME280;28426;42.872;25.314;2023-02-13T05:55:31;98872.69;;;-5.79;88.07
42771;BME280;28426;42.872;25.314;2023-02-13T05:58:04;98875.19;;;-5.74;87.53
42771;BME280;28426;42.872;25.314;2023-02-13T06:00:35;98881.06;;;-5.68;87.45
42771;BME280;28426;42.872;25.314;2023-02-13T06:03:06;98889.53;;;-5.59;87.25
42771;BME280;28426;42.872;25.314;2023-02-13T06:05:36;98889.31;;;-5.50;87.50
42771;BME280;28426;42.872;25.314;2023-02-13T06:08:07;98893.34;;;-5.38;87.30
42771;BME280;28426;42.872;25.314;2023-02-13T06:10:38;98892.16;;;-5.26;87.57
42771;BME280;28426;42.872;25.314;2023-02-13T06:13:14;98887.44;;;-5.13;87.43
42771;BME280;28426;42.872;25.314;2023-02-13T06:15:45;98888.00;;;-5.00;87.18
42771;BME280;28426;42.872;25.314;2023-02-13T06:18:17;98892.75;;;-4.84;87.14
42771;BME280;28426;42.872;25.314;2023-02-13T06:20:47;98895.00;;;-4.72;86.49
42771;BME280;28426;42.872;25.314;2023-02-13T06:23:18;98890.19;;;-4.56;86.26
42771;BME280;28426;42.872;25.314;2023-02-13T06:25:49;98899.38;;;-4.42;85.42
42771;BME280;28426;42.872;25.314;2023-02-13T06:28:22;98899.75;;;-4.26;85.04
42771;BME280;28426;42.872;25.314;2023-02-13T06:30:52;98900.16;;;-4.12;84.53
42771;BME280;28426;42.872;25.314;2023-02-13T06:33:24;98905.75;;;-3.96;84.28
42771;BME280;28426;42.872;25.314;2023-02-13T06:35:55;98897.50;;;-3.82;83.45
42771;BME280;28426;42.872;25.314;2023-02-13T06:38:25;98914.38;;;-3.65;83.50
42771;BME280;28426;42.872;25.314;2023-02-13T06:40:58;98907.72;;;-3.48;82.82
42771;BME280;28426;42.872;25.314;2023-02-13T06:43:33;98897.50;;;-3.29;82.53
42771;BME280;28426;42.872;25.314;2023-02-13T06:46:07;98899.41;;;-3.09;82.96
42771;BME280;28426;42.872;25.314;2023-02-13T06:48:38;98894.28;;;-2.86;82.27
42771;BME280;28426;42.872;25.314;2023-02-13T06:51:08;98899.47;;;-2.61;82.57
42771;BME280;28426;42.872;25.314;2023-02-13T06:53:39;98904.56;;;-2.34;82.56
42771;BME280;28426;42.872;25.314;2023-02-13T06:56:09;98896.59;;;-2.08;82.11
42771;BME280;28426;42.872;25.314;2023-02-13T06:58:43;98897.34;;;-1.82;81.82
42771;BME280;28426;42.872;25.314;2023-02-13T07:01:13;98889.31;;;-1.57;80.85
42771;BME280;28426;42.872;25.314;2023-02-13T07:03:44;98892.00;;;-1.38;80.08
42771;BME280;28426;42.872;25.314;2023-02-13T07:06:18;98900.34;;;-1.07;79.95
42771;BME280;28426;42.872;25.314;2023-02-13T07:08:49;98903.59;;;-0.81;79.03
42771;BME280;28426;42.872;25.314;2023-02-13T07:11:23;98905.09;;;-0.56;78.81
42771;BME280;28426;42.872;25.314;2023-02-13T07:13:57;98909.84;;;-0.26;77.81
42771;BME280;28426;42.872;25.314;2023-02-13T07:16:27;98906.91;;;-0.01;76.92
42771;BME280;28426;42.872;25.314;2023-02-13T07:18:58;98904.72;;;0.27;76.45
42771;BME280;28426;42.872;25.314;2023-02-13T07:21:28;98905.94;;;0.57;77.15
42771;BME280;28426;42.872;25.314;2023-02-13T07:23:59;98908.78;;;0.87;76.02
42771;BME280;28426;42.872;25.314;2023-02-13T07:26:30;98899.22;;;1.20;75.46
42771;BME280;28426;42.872;25.314;2023-02-13T07:29:03;98899.09;;;1.55;76.30
42771;BME280;28426;42.872;25.314;2023-02-13T07:31:38;98908.44;;;1.93;74.80
42771;BME280;28426;42.872;25.314;2023-02-13T07:34:09;98908.84;;;2.34;74.43
42771;BME280;28426;42.872;25.314;2023-02-13T07:36:39;98903.78;;;2.76;74.29
42771;BME280;28426;42.872;25.314;2023-02-13T07:39:10;98906.78;;;3.15;73.27
42771;BME280;28426;42.872;25.314;2023-02-13T07:41:40;98895.84;;;3.50;72.43
42771;BME280;28426;42.872;25.314;2023-02-13T07:44:13;98904.31;;;3.85;70.88
42771;BME280;28426;42.872;25.314;2023-02-13T07:46:44;98904.97;;;4.16;70.15
42771;BME280;28426;42.872;25.314;2023-02-13T07:49:15;98895.22;;;4.44;68.79
42771;BME280;28426;42.872;25.314;2023-02-13T07:51:45;98888.28;;;4.69;67.57
42771;BME280;28426;42.872;25.314;2023-02-13T07:54:16;98894.38;;;4.97;66.39
42771;BME280;28426;42.872;25.314;2023-02-13T07:56:47;98888.13;;;5.24;65.87
42771;BME280;28426;42.872;25.314;2023-02-13T07:59:20;98888.63;;;5.55;65.79
42771;BME280;28426;42.872;25.314;2023-02-13T08:01:50;98886.66;;;5.83;64.89
42771;BME280;28426;42.872;25.314;2023-02-13T08:04:21;98881.81;;;6.14;64.24
42771;BME280;28426;42.872;25.314;2023-02-13T08:06:52;98876.16;;;6.44;63.39
42771;BME280;28426;42.872;25.314;2023-02-13T08:09:23;98876.00;;;6.70;62.58
42771;BME280;28426;42.872;25.314;2023-02-13T08:12:08;98869.88;;;6.92;59.76
42771;BME280;28426;42.872;25.314;2023-02-13T08:14:41;98867.97;;;7.05;58.95
42771;BME280;28426;42.872;25.314;2023-02-13T08:17:12;98867.63;;;7.22;59.35
42771;BME280;28426;42.872;25.314;2023-02-13T08:19:42;98865.25;;;7.41;57.60
42771;BME280;28426;42.872;25.314;2023-02-13T08:22:13;98855.91;;;7.58;56.95
42771;BME280;28426;42.872;25.314;2023-02-13T08:24:44;98867.03;;;7.75;56.79
42771;BME280;28426;42.872;25.314;2023-02-13T08:27:14;98860.84;;;7.86;56.39
42771;BME280;28426;42.872;25.314;2023-02-13T08:29:48;98864.19;;;8.00;55.71
42771;BME280;28426;42.872;25.314;2023-02-13T08:32:18;98863.56;;;8.07;54.83
42771;BME280;28426;42.872;25.314;2023-02-13T08:34:49;98858.00;;;8.10;54.13
42771;BME280;28426;42.872;25.314;2023-02-13T08:37:19;98861.25;;;8.14;54.53
42771;BME280;28426;42.872;25.314;2023-02-13T08:39:50;98852.88;;;8.19;54.54
42771;BME280;28426;42.872;25.314;2023-02-13T08:42:21;98854.91;;;8.27;53.87
42771;BME280;28426;42.872;25.314;2023-02-13T08:44:54;98853.47;;;8.22;52.40
42771;BME280;28426;42.872;25.314;2023-02-13T08:47:25;98852.81;;;8.09;51.43
42771;BME280;28426;42.872;25.314;2023-02-13T08:49:56;98848.72;;;7.93;49.97
42771;BME280;28426;42.872;25.314;2023-02-13T08:52:27;98860.38;;;7.81;50.89
42771;BME280;28426;42.872;25.314;2023-02-13T08:54:58;98854.09;;;7.70;50.29
42771;BME280;28426;42.872;25.314;2023-02-13T08:57:30;98849.50;;;7.61;50.40
42771;BME280;28426;42.872;25.314;2023-02-13T09:00:04;98845.78;;;7.52;50.57
42771;BME280;28426;42.872;25.314;2023-02-13T09:02:35;98841.69;;;7.48;49.96
42771;BME280;28426;42.872;25.314;2023-02-13T09:05:06;98836.03;;;7.41;50.09
42771;BME280;28426;42.872;25.314;2023-02-13T09:07:36;98836.38;;;7.37;50.36
42771;BME280;28426;42.872;25.314;2023-02-13T09:10:07;98832.41;;;7.31;50.12
42771;BME280;28426;42.872;25.314;2023-02-13T09:12:39;98835.06;;;7.19;48.51
42771;BME280;28426;42.872;25.314;2023-02-13T09:15:12;98837.47;;;7.11;49.67
42771;BME280;28426;42.872;25.314;2023-02-13T09:17:42;98829.72;;;7.08;50.04
42771;BME280;28426;42.872;25.314;2023-02-13T09:20:13;98823.72;;;7.06;50.53
42771;BME280;28426;42.872;25.314;2023-02-13T09:22:44;98825.16;;;7.10;51.00
42771;BME280;28426;42.872;25.314;2023-02-13T09:25:14;98830.34;;;7.12;50.40
42771;BME280;28426;42.872;25.314;2023-02-13T09:27:46;98824.06;;;7.13;50.84
42771;BME280;28426;42.872;25.314;2023-02-13T09:30:20;98826.13;;;7.09;50.62
42771;BME280;28426;42.872;25.314;2023-02-13T09:32:53;98826.00;;;7.11;50.35
42771;BME280;28426;42.872;25.314;2023-02-13T09:35:24;98820.69;;;7.11;50.57
42771;BME280;28426;42.872;25.314;2023-02-13T09:37:55;98813.34;;;7.14;50.81
42771;BME280;28426;42.872;25.314;2023-02-13T09:40:28;98813.94;;;7.18;50.93
42771;BME280;28426;42.872;25.314;2023-02-13T09:43:09;98794.16;;;7.11;50.91
42771;BME280;28426;42.872;25.314;2023-02-13T09:45:46;98801.75;;;7.27;50.66
42771;BME280;28426;42.872;25.314;2023-02-13T09:48:26;98796.91;;;7.32;50.55
42771;BME280;28426;42.872;25.314;2023-02-13T09:50:58;98795.22;;;7.31;48.55
42771;BME280;28426;42.872;25.314;2023-02-13T09:53:30;98791.84;;;7.29;49.79
42771;BME280;28426;42.872;25.314;2023-02-13T09:56:08;98788.31;;;7.28;49.72
42771;BME280;28426;42.872;25.314;2023-02-13T09:58:43;98784.63;;;7.31;48.24
42771;BME280;28426;42.872;25.314;2023-02-13T10:01:28;98784.63;;;7.31;49.30
42771;BME280;28426;42.872;25.314;2023-02-13T10:07:05;98771.19;;;7.44;50.00
42771;BME280;28426;42.872;25.314;2023-02-13T10:09:45;98766.09;;;7.52;49.81
42771;BME280;28426;42.872;25.314;2023-02-13T10:12:28;98765.72;;;7.57;49.25
42771;BME280;28426;42.872;25.314;2023-02-13T10:15:13;98759.44;;;7.58;48.36
42771;BME280;28426;42.872;25.314;2023-02-13T10:17:53;98756.31;;;7.53;47.62
42771;BME280;28426;42.872;25.314;2023-02-13T10:20:31;98757.66;;;7.47;47.67
42771;BME280;28426;42.872;25.314;2023-02-13T10:23:15;98753.69;;;7.41;48.38
42771;BME280;28426;42.872;25.314;2023-02-13T10:25:51;98745.25;;;7.36;48.45
42771;BME280;28426;42.872;25.314;2023-02-13T10:28:37;98754.44;;;7.32;47.60
42771;BME280;28426;42.872;25.314;2023-02-13T10:31:11;98726.91;;;7.22;48.25
42771;BME280;28426;42.872;25.314;2023-02-13T10:33:48;98741.78;;;7.24;47.29
42771;BME280;28426;42.872;25.314;2023-02-13T10:36:21;98736.81;;;7.19;46.65
42771;BME280;28426;42.872;25.314;2023-02-13T10:38:56;98731.03;;;7.14;47.55
42771;BME280;28426;42.872;25.314;2023-02-13T10:41:39;98727.41;;;7.15;47.73
42771;BME280;28426;42.872;25.314;2023-02-13T10:44:25;98729.09;;;7.16;46.99
42771;BME280;28426;42.872;25.314;2023-02-13T10:47:04;98724.88;;;7.14;47.43
42771;BME280;28426;42.872;25.314;2023-02-13T10:49:57;98721.88;;;7.18;47.32
42771;BME280;28426;42.872;25.314;2023-02-13T10:52:41;98715.22;;;7.24;46.15
42771;BME280;28426;42.872;25.314;2023-02-13T10:58:11;98709.63;;;7.39;47.20
42771;BME280;28426;42.872;25.314;2023-02-13T11:00:47;98708.63;;;7.51;48.40
42771;BME280;28426;42.872;25.314;2023-02-13T11:03:21;98715.00;;;7.60;47.42
42771;BME280;28426;42.872;25.314;2023-02-13T11:05:56;98705.28;;;7.70;47.31
42771;BME280;28426;42.872;25.314;2023-02-13T11:08:32;98702.84;;;7.79;47.15
42771;BME280;28426;42.872;25.314;2023-02-13T11:11:04;98701.25;;;7.88;46.94
42771;BME280;28426;42.872;25.314;2023-02-13T11:14:07;98693.84;;;7.91;46.11
42771;BME280;28426;42.872;25.314;2023-02-13T11:16:50;98699.09;;;8.03;44.96
42771;BME280;28426;42.872;25.314;2023-02-13T11:19:30;98702.22;;;8.08;45.79
42771;BME280;28426;42.872;25.314;2023-02-13T11:22:07;98690.75;;;8.07;46.53
42771;BME280;28426;42.872;25.314;2023-02-13T11:24:41;98684.50;;;8.18;47.38
42771;BME280;28426;42.872;25.314;2023-02-13T11:27:25;98683.72;;;8.28;46.06
42771;BME280;28426;42.872;25.314;2023-02-13T11:29:58;98679.72;;;8.33;46.22
42771;BME280;28426;42.872;25.314;2023-02-13T11:32:31;98674.41;;;8.43;47.30
42771;BME280;28426;42.872;25.314;2023-02-13T11:35:30;98675.06;;;8.57;45.94
42771;BME280;28426;42.872;25.314;2023-02-13T11:38:21;98669.09;;;8.65;43.93
42771;BME280;28426;42.872;25.314;2023-02-13T11:41:02;98668.00;;;8.67;46.03
42771;BME280;28426;42.872;25.314;2023-02-13T11:43:35;98674.56;;;8.73;45.76
42771;BME280;28426;42.872;25.314;2023-02-13T11:46:09;98675.16;;;8.76;45.64
42771;BME280;28426;42.872;25.314;2023-02-13T11:48:44;98669.25;;;8.73;45.09
42771;BME280;28426;42.872;25.314;2023-02-13T11:51:38;98666.88;;;8.70;44.66
42771;BME280;28426;42.872;25.314;2023-02-13T11:54:29;98656.94;;;8.72;44.87
42771;BME280;28426;42.872;25.314;2023-02-13T11:57:08;98651.09;;;8.78;46.37
42771;BME280;28426;42.872;25.314;2023-02-13T11:59:49;98655.03;;;8.94;46.70
42771;BME280;28426;42.872;25.314;2023-02-13T12:02:21;98649.44;;;9.07;46.83
42771;BME280;28426;42.872;25.314;2023-02-13T12:04:53;98646.41;;;9.21;46.55
42771;BME280;28426;42.872;25.314;2023-02-13T12:07:26;98634.63;;;9.34;46.65
42771;BME280;28426;42.872;25.314;2023-02-13T12:10:06;98630.72;;;9.48;46.30
42771;BME280;28426;42.872;25.314;2023-02-13T12:12:46;98625.81;;;9.63;46.76
42771;BME280;28426;42.872;25.314;2023-02-13T12:15:24;98622.72;;;9.77;46.34
42771;BME280;28426;42.872;25.314;2023-02-13T12:18:10;98616.53;;;9.87;44.63
42771;BME280;28426;42.872;25.314;2023-02-13T12:20:54;98617.22;;;9.89;44.38
42771;BME280;28426;42.872;25.314;2023-02-13T12:23:35;98612.44;;;9.92;45.02
42771;BME280;28426;42.872;25.314;2023-02-13T12:26:20;98613.00;;;9.96;44.07
42771;BME280;28426;42.872;25.314;2023-02-13T12:29:03;98606.69;;;9.97;43.59
42771;BME280;28426;42.872;25.314;2023-02-13T12:31:49;98604.84;;;9.98;44.72
42771;BME280;28426;42.872;25.314;2023-02-13T12:37:45;98595.84;;;10.08;44.18
42771;BME280;28426;42.872;25.314;2023-02-13T12:40:24;98595.09;;;10.16;43.32
42771;BME280;28426;42.872;25.314;2023-02-13T12:43:15;98594.09;;;10.27;44.30
42771;BME280;28426;42.872;25.314;2023-02-13T12:45:55;98598.16;;;10.31;44.26
42771;BME280;28426;42.872;25.314;2023-02-13T12:48:36;98592.81;;;10.31;44.06
42771;BME280;28426;42.872;25.314;2023-02-13T12:51:26;98593.41;;;10.25;42.50
42771;BME280;28426;42.872;25.314;2023-02-13T12:54:24;98591.91;;;10.13;42.78
42771;BME280;28426;42.872;25.314;2023-02-13T12:57:13;98587.59;;;9.92;43.10
42771;BME280;28426;42.872;25.314;2023-02-13T13:00:00;98583.00;;;9.74;42.67
42771;BME280;28426;42.872;25.314;2023-02-13T13:03:00;98592.28;;;9.50;42.57
42771;BME280;28426;42.872;25.314;2023-02-13T13:05:49;98593.97;;;9.32;43.23
42771;BME280;28426;42.872;25.314;2023-02-13T13:08:56;98590.59;;;9.10;43.27
42771;BME280;28426;42.872;25.314;2023-02-13T13:11:57;98586.09;;;8.90;43.01
42771;BME280;28426;42.872;25.314;2023-02-13T13:14:38;98566.97;;;8.56;43.90
42771;BME280;28426;42.872;25.314;2023-02-13T13:17:24;98584.59;;;8.57;43.70
42771;BME280;28426;42.872;25.314;2023-02-13T13:20:03;98578.94;;;8.40;43.95
42771;BME280;28426;42.872;25.314;2023-02-13T13:22:48;98590.34;;;8.21;43.92
42771;BME280;28426;42.872;25.314;2023-02-13T13:25:23;98583.81;;;8.04;44.48
42771;BME280;28426;42.872;25.314;2023-02-13T13:27:58;98585.97;;;7.89;44.98
42771;BME280;28426;42.872;25.314;2023-02-13T13:30:32;98580.84;;;7.76;45.59
42771;BME280;28426;42.872;25.314;2023-02-13T13:33:14;98581.06;;;7.63;45.51
42771;BME280;28426;42.872;25.314;2023-02-13T13:35:54;98577.22;;;7.55;46.57
42771;BME280;28426;42.872;25.314;2023-02-13T13:38:37;98575.34;;;7.46;46.48
42771;BME280;28426;42.872;25.314;2023-02-13T13:41:15;98578.16;;;7.44;46.90
42771;BME280;28426;42.872;25.314;2023-02-13T13:43:59;98568.88;;;7.39;47.06
42771;BME280;28426;42.872;25.314;2023-02-13T13:46:39;98576.72;;;7.40;47.44
42771;BME280;28426;42.872;25.314;2023-02-13T13:49:29;98572.34;;;7.39;47.70
42771;BME280;28426;42.872;25.314;2023-02-13T13:52:18;98564.66;;;7.36;47.28
42771;BME280;28426;42.872;25.314;2023-02-13T13:54:49;98567.56;;;7.33;47.92
42771;BME280;28426;42.872;25.314;2023-02-13T13:57:22;98559.03;;;7.29;47.69
42771;BME280;28426;42.872;25.314;2023-02-13T13:59:58;98563.88;;;7.24;47.68